Time;durP1;ratioP1;P1;durP2;ratioP2;P2;SDS_P1;SDS_P2;PMS_P1;PMS_P2;Temp;Humidity;BMP_temperature;BMP_pressure;BME280_temperature;BME280_humidity;BME280_pressure;Samples;Min_cycle;Max_cycle;Signal;HPM_P1;HPM_P2
2022/10/07 00:00:12;;;;;;;4.88;1.90;;;;;;;;;;5018868;28;20391;-86
2022/10/07 00:02:38;;;;;;;4.07;2.00;;;;;;;;;;5018481;28;20120;-85
2022/10/07 00:05:03;;;;;;;4.65;1.90;;;;;;;;;;5036464;28;20105;-85
2022/10/07 00:07:29;;;;;;;4.47;1.90;;;;;;;;;;5035089;28;20472;-85
2022/10/07 00:09:54;;;;;;;4.55;1.75;;;;;;;;;;5036818;28;20029;-85
2022/10/07 00:12:19;;;;;;;5.90;1.88;;;;;;;;;;5036537;28;20053;-85
2022/10/07 00:14:45;;;;;;;3.53;2.00;;;;;;;;;;5036667;28;20033;-85
2022/10/07 00:17:10;;;;;;;4.18;2.10;;;;;;;;;;5018695;28;20036;-85
2022/10/07 00:19:35;;;;;;;4.70;2.20;;;;;;;;;;5018123;28;20038;-84
2022/10/07 00:22:01;;;;;;;5.43;2.25;;;;;;;;;;5018082;28;20154;-84
2022/10/07 00:24:26;;;;;;;2.83;1.77;;;;;;;;;;5034482;28;20034;-85
2022/10/07 00:26:51;;;;;;;4.18;1.88;;;;;;;;;;5018055;28;20083;-85
2022/10/07 00:29:17;;;;;;;5.00;2.22;;;;;;;;;;5035583;28;20029;-85
2022/10/07 00:31:42;;;;;;;4.55;1.80;;;;;;;;;;5034476;28;20037;-85
2022/10/07 00:34:10;;;;;;;3.92;2.08;;;;;;;;;;5034187;28;20096;-85
2022/10/07 00:36:38;;;;;;;5.55;2.05;;;;;;;;;;5034419;28;20056;-85
2022/10/07 00:39:13;;;;;;;5.25;1.92;;;;;;;;;;5019628;28;20021;-85
2022/10/07 00:41:44;;;;;;;4.05;1.90;;;;;;;;;;5035631;28;20029;-86
2022/10/07 00:44:30;;;;;;;3.30;2.55;;;;;;;;;;5034142;28;20053;-85
2022/10/07 00:47:32;;;;;;;6.22;2.25;;;;;;;;;;5034216;28;20030;-84
2022/10/07 00:50:20;;;;;;;4.57;2.10;;;;;;;;;;5016116;28;20049;-84
2022/10/07 00:52:56;;;;;;;3.45;1.80;;;;;;;;;;5034177;28;20060;-85
2022/10/07 00:55:23;;;;;;;4.45;1.95;;;;;;;;;;5034442;28;20025;-85
2022/10/07 00:57:52;;;;;;;5.57;1.98;;;;;;;;;;5033901;28;20105;-85
2022/10/07 01:00:17;;;;;;;5.10;1.98;;;;;;;;;;5033860;28;20074;-85
2022/10/07 01:02:43;;;;;;;4.38;1.90;;;;;;;;;;5035006;28;20427;-85
2022/10/07 01:05:09;;;;;;;4.55;1.95;;;;;;;;;;5034702;28;20030;-85
2022/10/07 01:07:35;;;;;;;3.40;1.98;;;;;;;;;;5033826;28;20167;-84
2022/10/07 01:10:01;;;;;;;5.18;2.13;;;;;;;;;;5000997;28;20047;-85
2022/10/07 01:12:48;;;;;;;4.95;1.83;;;;;;;;;;5034481;28;20091;-85
2022/10/07 01:15:26;;;;;;;3.90;1.83;;;;;;;;;;5035570;28;20081;-85
2022/10/07 01:18:06;;;;;;;6.55;2.05;;;;;;;;;;5034255;28;20036;-85
2022/10/07 01:20:52;;;;;;;2.72;1.80;;;;;;;;;;5017884;28;20033;-85
2022/10/07 01:23:20;;;;;;;4.75;2.00;;;;;;;;;;5035089;28;20029;-84
2022/10/07 01:26:13;;;;;;;3.80;1.95;;;;;;;;;;5035303;28;20034;-85
2022/10/07 01:28:42;;;;;;;4.32;2.15;;;;;;;;;;5033508;28;20048;-83
2022/10/07 01:31:10;;;;;;;5.47;2.13;;;;;;;;;;5034367;28;20059;-83
2022/10/07 01:33:37;;;;;;;4.18;2.00;;;;;;;;;;5018092;28;20037;-84
2022/10/07 01:36:08;;;;;;;4.22;1.95;;;;;;;;;;5035388;28;20022;-84
2022/10/07 01:38:35;;;;;;;5.95;2.20;;;;;;;;;;5034548;28;20391;-85
2022/10/07 01:41:05;;;;;;;6.53;2.10;;;;;;;;;;5034366;28;20032;-85
2022/10/07 01:43:31;;;;;;;4.75;2.15;;;;;;;;;;5034283;28;20029;-84
2022/10/07 01:45:57;;;;;;;4.28;1.95;;;;;;;;;;5033405;28;20159;-85
2022/10/07 01:48:23;;;;;;;5.70;2.30;;;;;;;;;;5034999;28;20079;-84
2022/10/07 01:50:50;;;;;;;5.03;2.22;;;;;;;;;;5016843;28;20041;-85
2022/10/07 01:53:30;;;;;;;5.20;2.33;;;;;;;;;;5034732;28;20036;-85
2022/10/07 01:56:05;;;;;;;4.30;2.00;;;;;;;;;;5033952;28;20551;-85
2022/10/07 01:58:32;;;;;;;7.88;2.38;;;;;;;;;;5032747;28;20022;-85
2022/10/07 02:01:12;;;;;;;4.90;2.30;;;;;;;;;;5032867;28;20021;-85
2022/10/07 02:03:55;;;;;;;6.60;2.50;;;;;;;;;;5034216;28;20021;-86
2022/10/07 02:06:27;;;;;;;6.30;2.20;;;;;;;;;;5032586;28;20057;-85
2022/10/07 02:08:54;;;;;;;7.85;2.58;;;;;;;;;;5033134;28;20321;-85
2022/10/07 02:11:23;;;;;;;8.60;2.22;;;;;;;;;;5032676;28;20097;-86
2022/10/07 02:14:07;;;;;;;6.43;2.50;;;;;;;;;;5033210;28;20112;-86
2022/10/07 02:16:38;;;;;;;6.53;2.63;;;;;;;;;;5032485;28;20044;-85
2022/10/07 02:19:09;;;;;;;6.32;2.67;;;;;;;;;;5032414;28;20021;-85
2022/10/07 02:21:37;;;;;;;5.97;2.47;;;;;;;;;;5033176;28;20116;-85
2022/10/07 02:24:03;;;;;;;6.32;2.47;;;;;;;;;;5016034;28;20032;-85
2022/10/07 02:26:30;;;;;;;9.27;2.78;;;;;;;;;;5032460;28;20083;-85
2022/10/07 02:28:57;;;;;;;5.28;2.55;;;;;;;;;;5016486;28;20026;-86
2022/10/07 02:31:29;;;;;;;6.72;2.42;;;;;;;;;;5016967;28;20472;-86
2022/10/07 02:33:56;;;;;;;8.40;2.92;;;;;;;;;;5017046;28;20029;-86
2022/10/07 02:36:28;;;;;;;6.18;2.20;;;;;;;;;;5034504;28;20496;-86
2022/10/07 02:38:55;;;;;;;6.18;2.35;;;;;;;;;;5032851;28;20022;-86
2022/10/07 02:41:30;;;;;;;5.85;2.50;;;;;;;;;;5033045;28;20052;-84
2022/10/07 02:44:14;;;;;;;6.78;2.75;;;;;;;;;;5016252;28;20053;-84
2022/10/07 02:47:03;;;;;;;10.32;2.40;;;;;;;;;;5032449;28;20570;-84
2022/10/07 02:49:30;;;;;;;6.60;2.50;;;;;;;;;;5032033;28;20029;-84
2022/10/07 02:52:02;;;;;;;9.00;2.08;;;;;;;;;;5015746;28;20551;-83
2022/10/07 02:54:34;;;;;;;6.18;2.95;;;;;;;;;;5032057;28;20108;-84
2022/10/07 02:57:00;;;;;;;4.25;2.08;;;;;;;;;;5031909;28;20018;-84
2022/10/07 02:59:26;;;;;;;6.40;2.40;;;;;;;;;;4999117;28;20472;-85
2022/10/07 03:01:54;;;;;;;5.82;2.42;;;;;;;;;;5015591;28;20041;-86
2022/10/07 03:04:21;;;;;;;6.32;2.55;;;;;;;;;;5032608;28;20156;-86
2022/10/07 03:06:46;;;;;;;5.75;2.35;;;;;;;;;;5032649;28;20048;-86
2022/10/07 03:09:12;;;;;;;5.60;2.58;;;;;;;;;;5035119;28;20038;-86
2022/10/07 03:11:38;;;;;;;5.55;2.42;;;;;;;;;;5036441;28;20096;-85
2022/10/07 03:14:04;;;;;;;8.13;2.33;;;;;;;;;;5036058;28;20082;-85
2022/10/07 03:16:30;;;;;;;5.28;2.50;;;;;;;;;;5037405;28;20484;-86
2022/10/07 03:18:57;;;;;;;6.93;2.50;;;;;;;;;;5035712;28;20511;-85
2022/10/07 03:21:24;;;;;;;6.30;2.17;;;;;;;;;;5036018;28;20551;-84
2022/10/07 03:23:51;;;;;;;5.97;2.33;;;;;;;;;;5019050;28;20044;-84
2022/10/07 03:26:18;;;;;;;5.80;2.45;;;;;;;;;;5002971;28;20029;-84
2022/10/07 03:28:44;;;;;;;7.80;2.25;;;;;;;;;;5035555;28;20076;-84
2022/10/07 03:31:10;;;;;;;5.32;2.22;;;;;;;;;;5035637;28;20075;-83
2022/10/07 03:33:36;;;;;;;4.72;2.20;;;;;;;;;;5035407;28;20018;-84
2022/10/07 03:36:04;;;;;;;5.13;2.30;;;;;;;;;;5036514;28;20530;-83
2022/10/07 03:38:30;;;;;;;4.22;2.05;;;;;;;;;;5035646;28;20026;-83
2022/10/07 03:40:55;;;;;;;5.95;2.35;;;;;;;;;;5036406;28;20040;-83
2022/10/07 03:43:22;;;;;;;6.85;2.20;;;;;;;;;;5035958;28;20045;-83
2022/10/07 03:45:50;;;;;;;5.95;2.00;;;;;;;;;;5035017;28;20116;-83
2022/10/07 03:48:16;;;;;;;4.53;2.33;;;;;;;;;;5019348;28;20033;-83
2022/10/07 03:50:48;;;;;;;7.40;2.42;;;;;;;;;;5018633;28;20029;-83
2022/10/07 03:53:13;;;;;;;5.75;2.35;;;;;;;;;;5036632;28;20083;-83
2022/10/07 03:55:39;;;;;;;8.57;2.67;;;;;;;;;;5036158;28;20025;-83
2022/10/07 03:58:04;;;;;;;3.78;2.10;;;;;;;;;;5018461;28;20037;-83
2022/10/07 04:00:30;;;;;;;4.35;2.03;;;;;;;;;;5018459;28;20037;-83
2022/10/07 04:02:55;;;;;;;6.50;2.33;;;;;;;;;;5036084;28;20373;-83
2022/10/07 04:05:21;;;;;;;4.80;1.98;;;;;;;;;;5035051;28;20030;-83
2022/10/07 04:07:48;;;;;;;5.53;2.30;;;;;;;;;;5035351;28;20124;-83
2022/10/07 04:10:15;;;;;;;5.63;1.90;;;;;;;;;;5051436;28;20377;-83
2022/10/07 04:12:42;;;;;;;4.85;2.20;;;;;;;;;;5018243;28;20021;-82
2022/10/07 04:15:08;;;;;;;4.05;1.90;;;;;;;;;;5034845;28;20104;-83
2022/10/07 04:17:33;;;;;;;7.40;2.42;;;;;;;;;;5001994;28;20037;-82
2022/10/07 04:19:59;;;;;;;4.47;2.10;;;;;;;;;;5033725;28;20037;-83
2022/10/07 04:22:25;;;;;;;3.88;1.60;;;;;;;;;;5018174;28;20039;-81
2022/10/07 04:27:37;;;;;;;;;;;;;;;;;;5021762;28;20087;-81
2022/10/07 04:30:03;;;;;;;6.50;2.47;;;;;;;;;;5018223;28;19909;-81
2022/10/07 04:32:30;;;;;;;6.88;2.60;;;;;;;;;;5018194;28;20034;-81
2022/10/07 04:34:55;;;;;;;10.80;2.63;;;;;;;;;;5034553;28;20021;-81
2022/10/07 04:37:20;;;;;;;17.65;3.30;;;;;;;;;;5034462;28;20076;-82
2022/10/07 04:39:46;;;;;;;7.35;2.80;;;;;;;;;;5034472;28;20034;-83
2022/10/07 04:43:17;;;;;;;5.60;2.40;;;;;;;;;;5018191;28;20037;-82
2022/10/07 04:44:56;;;;;;;8.73;2.75;;;;;;;;;;5035124;28;20057;-82
2022/10/07 04:47:22;;;;;;;8.05;2.55;;;;;;;;;;5035909;28;20037;-84
2022/10/07 04:49:47;;;;;;;11.35;2.60;;;;;;;;;;5017637;28;20034;-84
2022/10/07 04:52:12;;;;;;;10.25;2.70;;;;;;;;;;5035459;28;20035;-83
2022/10/07 04:54:38;;;;;;;13.25;2.45;;;;;;;;;;5035794;28;20083;-83
2022/10/07 04:57:03;;;;;;;13.05;2.55;;;;;;;;;;5034093;28;20100;-83
2022/10/07 04:59:29;;;;;;;7.68;2.70;;;;;;;;;;5034277;28;20025;-82
2022/10/07 05:01:54;;;;;;;10.50;2.60;;;;;;;;;;5017681;28;20029;-84
2022/10/07 05:04:20;;;;;;;7.95;2.20;;;;;;;;;;5017848;28;20049;-84
2022/10/07 05:06:45;;;;;;;8.18;2.30;;;;;;;;;;5033859;28;20026;-84
2022/10/07 05:09:11;;;;;;;9.23;2.60;;;;;;;;;;5035079;28;20039;-83
2022/10/07 05:11:36;;;;;;;10.10;2.47;;;;;;;;;;5017376;28;20033;-84
2022/10/07 05:14:02;;;;;;;13.88;2.83;;;;;;;;;;5034080;28;20088;-83
2022/10/07 05:16:27;;;;;;;9.82;2.92;;;;;;;;;;5033853;28;20052;-83
2022/10/07 05:18:52;;;;;;;4.55;2.30;;;;;;;;;;5033700;28;20044;-83
2022/10/07 05:21:18;;;;;;;8.27;2.17;;;;;;;;;;5033922;28;20098;-83
2022/10/07 05:23:43;;;;;;;7.60;2.30;;;;;;;;;;5036243;28;20033;-82
2022/10/07 05:26:09;;;;;;;8.13;2.50;;;;;;;;;;5036267;28;20105;-83
2022/10/07 05:28:36;;;;;;;5.97;1.95;;;;;;;;;;5034588;28;20491;-83
2022/10/07 05:31:04;;;;;;;6.32;2.30;;;;;;;;;;5018561;28;20036;-83
2022/10/07 05:33:30;;;;;;;10.05;2.40;;;;;;;;;;5019012;28;20029;-84
2022/10/07 05:35:56;;;;;;;7.90;2.25;;;;;;;;;;5035183;28;20045;-83
2022/10/07 05:38:22;;;;;;;9.98;2.22;;;;;;;;;;5033899;28;20033;-84
2022/10/07 05:40:58;;;;;;;7.78;2.08;;;;;;;;;;5016694;28;20025;-85
2022/10/07 05:43:24;;;;;;;5.90;2.38;;;;;;;;;;5033076;28;20029;-83
2022/10/07 05:45:59;;;;;;;6.45;2.10;;;;;;;;;;5016550;28;20030;-83
2022/10/07 05:48:24;;;;;;;7.60;2.30;;;;;;;;;;5033530;28;20108;-84
2022/10/07 05:50:50;;;;;;;7.05;2.45;;;;;;;;;;5033148;28;20037;-83
2022/10/07 05:53:15;;;;;;;6.13;2.20;;;;;;;;;;5033119;28;20033;-83
2022/10/07 05:55:40;;;;;;;6.32;2.10;;;;;;;;;;5034443;28;20028;-84
2022/10/07 05:58:06;;;;;;;13.27;2.40;;;;;;;;;;5034267;28;20021;-83
2022/10/07 06:00:34;;;;;;;8.07;2.00;;;;;;;;;;5033209;28;20039;-82
2022/10/07 06:03:01;;;;;;;6.70;2.10;;;;;;;;;;5034626;28;20033;-82
2022/10/07 06:05:31;;;;;;;7.72;2.10;;;;;;;;;;5035431;28;20384;-83
2022/10/07 06:07:56;;;;;;;10.07;2.13;;;;;;;;;;5034237;28;20036;-83
2022/10/07 06:13:07;;;;;;;7.38;2.40;;;;;;;;;;5034825;28;20172;-83
2022/10/07 06:15:32;;;;;;;5.40;2.03;;;;;;;;;;5016521;28;20064;-83
2022/10/07 06:17:58;;;;;;;5.78;2.22;;;;;;;;;;5032492;28;20107;-82
2022/10/07 06:20:23;;;;;;;5.20;2.05;;;;;;;;;;5034047;28;20041;-82
2022/10/07 06:22:48;;;;;;;7.13;2.30;;;;;;;;;;5032561;28;20036;-80
2022/10/07 06:25:14;;;;;;;5.57;1.90;;;;;;;;;;5032660;28;20472;-81
2022/10/07 06:27:39;;;;;;;8.52;2.50;;;;;;;;;;5032414;28;20033;-85
2022/10/07 06:30:06;;;;;;;9.10;2.53;;;;;;;;;;5032359;28;20033;-76
2022/10/07 06:32:31;;;;;;;6.32;2.45;;;;;;;;;;5033471;28;20036;-77
2022/10/07 06:34:57;;;;;;;16.92;2.78;;;;;;;;;;5032245;28;20033;-78
2022/10/07 06:37:22;;;;;;;12.57;2.90;;;;;;;;;;5032098;28;20124;-79
2022/10/07 06:39:47;;;;;;;17.05;2.85;;;;;;;;;;5033693;28;20147;-78
2022/10/07 06:42:13;;;;;;;11.88;2.42;;;;;;;;;;5032204;28;20029;-78
2022/10/07 06:44:39;;;;;;;6.78;2.10;;;;;;;;;;5032231;28;20491;-79
2022/10/07 06:47:04;;;;;;;10.02;2.28;;;;;;;;;;5033712;28;20419;-79
2022/10/07 06:49:30;;;;;;;12.73;2.75;;;;;;;;;;5016603;28;20040;-79
2022/10/07 06:51:55;;;;;;;13.23;2.90;;;;;;;;;;5016305;28;20033;-80
2022/10/07 06:54:21;;;;;;;13.75;2.85;;;;;;;;;;5016558;28;20033;-79
2022/10/07 06:56:46;;;;;;;16.08;2.85;;;;;;;;;;5033033;28;20028;-78
2022/10/07 06:59:11;;;;;;;24.83;3.05;;;;;;;;;;5016676;28;20128;-79
2022/10/07 07:01:37;;;;;;;13.07;3.17;;;;;;;;;;5017080;28;20030;-79
2022/10/07 07:04:02;;;;;;;10.20;2.58;;;;;;;;;;5033882;28;20029;-79
2022/10/07 07:06:28;;;;;;;10.48;2.45;;;;;;;;;;5019727;28;20026;-78
2022/10/07 07:08:54;;;;;;;9.55;3.00;;;;;;;;;;5018141;28;20025;-78
2022/10/07 07:11:35;;;;;;;7.72;2.28;;;;;;;;;;5052403;28;20091;-79
2022/10/07 07:14:02;;;;;;;12.02;2.58;;;;;;;;;;5035404;28;20548;-79
2022/10/07 07:16:28;;;;;;;10.27;2.65;;;;;;;;;;5034868;28;20021;-79
2022/10/07 07:19:00;;;;;;;10.27;2.65;;;;;;;;;;5034608;28;20087;-79
2022/10/07 07:21:27;;;;;;;10.98;2.60;;;;;;;;;;5034234;28;20052;-79
2022/10/07 07:23:53;;;;;;;11.90;2.50;;;;;;;;;;5016676;28;20059;-82
2022/10/07 07:26:19;;;;;;;8.38;2.50;;;;;;;;;;5033042;28;20030;-77
2022/10/07 07:28:50;;;;;;;10.73;2.60;;;;;;;;;;5032725;28;20151;-78
2022/10/07 07:31:16;;;;;;;10.07;2.53;;;;;;;;;;5033776;28;20022;-78
2022/10/07 07:33:41;;;;;;;8.82;2.22;;;;;;;;;;5032456;28;20480;-77
2022/10/07 07:36:14;;;;;;;13.00;2.55;;;;;;;;;;5034028;28;20392;-76
2022/10/07 07:38:39;;;;;;;14.13;2.90;;;;;;;;;;5018301;28;20045;-77
2022/10/07 07:41:05;;;;;;;14.68;2.83;;;;;;;;;;5033585;28;20025;-78
2022/10/07 07:43:30;;;;;;;13.73;2.60;;;;;;;;;;5034438;28;20516;-77
2022/10/07 07:45:59;;;;;;;19.65;3.55;;;;;;;;;;5033585;28;20084;-77
2022/10/07 07:48:24;;;;;;;15.13;2.85;;;;;;;;;;5037381;28;20033;-78
2022/10/07 07:50:50;;;;;;;7.22;2.53;;;;;;;;;;5035851;28;20388;-78
2022/10/07 07:53:15;;;;;;;14.52;2.50;;;;;;;;;;5032548;28;20030;-78
2022/10/07 07:55:54;;;;;;;14.45;2.95;;;;;;;;;;5037916;28;20029;-77
2022/10/07 07:58:20;;;;;;;9.75;2.50;;;;;;;;;;5039810;28;20105;-80
2022/10/07 08:00:59;;;;;;;10.20;2.22;;;;;;;;;;5042151;28;20075;-76
2022/10/07 08:03:25;;;;;;;11.65;2.72;;;;;;;;;;5042970;28;20026;-81
2022/10/07 08:05:51;;;;;;;10.88;2.30;;;;;;;;;;5028927;28;20036;-78
2022/10/07 08:08:16;;;;;;;12.82;2.53;;;;;;;;;;5037925;28;20029;-79
2022/10/07 08:10:42;;;;;;;14.23;2.45;;;;;;;;;;5023279;28;20053;-76
2022/10/07 08:13:08;;;;;;;13.40;2.92;;;;;;;;;;5038105;28;20040;-77
2022/10/07 08:15:34;;;;;;;10.82;2.47;;;;;;;;;;5022483;28;20464;-77
2022/10/07 08:18:01;;;;;;;16.52;2.53;;;;;;;;;;5020110;28;20036;-77
2022/10/07 08:20:27;;;;;;;11.85;3.03;;;;;;;;;;5020422;28;20485;-78
2022/10/07 08:22:52;;;;;;;10.45;2.70;;;;;;;;;;5021888;28;20030;-76
2022/10/07 08:25:17;;;;;;;11.30;2.88;;;;;;;;;;5005185;28;20022;-77
2022/10/07 08:27:43;;;;;;;9.20;2.53;;;;;;;;;;5038321;28;20375;-77
2022/10/07 08:30:09;;;;;;;12.05;2.72;;;;;;;;;;5038583;28;20033;-77
2022/10/07 08:32:34;;;;;;;11.18;2.80;;;;;;;;;;5052630;28;20511;-77
2022/10/07 08:34:59;;;;;;;8.82;2.53;;;;;;;;;;5038291;28;20041;-77
2022/10/07 08:37:25;;;;;;;15.13;2.83;;;;;;;;;;5037553;28;20025;-78
2022/10/07 08:39:50;;;;;;;14.02;3.00;;;;;;;;;;5019303;28;20391;-78
2022/10/07 08:42:26;;;;;;;8.65;2.60;;;;;;;;;;5037509;28;20472;-77
2022/10/07 08:44:52;;;;;;;12.40;2.85;;;;;;;;;;5020646;28;20049;-77
2022/10/07 08:47:39;;;;;;;12.30;2.67;;;;;;;;;;5034836;28;20036;-78
2022/10/07 08:50:24;;;;;;;8.85;2.95;;;;;;;;;;5035330;28;20045;-78
2022/10/07 08:52:52;;;;;;;13.35;2.55;;;;;;;;;;5034358;28;20064;-78
2022/10/07 08:55:39;;;;;;;15.48;3.13;;;;;;;;;;5035577;28;20479;-77
2022/10/07 08:58:24;;;;;;;15.52;2.88;;;;;;;;;;5035382;28;20033;-78
2022/10/07 09:01:28;;;;;;;12.25;3.05;;;;;;;;;;5036469;28;20029;-77
2022/10/07 09:04:05;;;;;;;19.33;3.28;;;;;;;;;;5035364;28;20095;-78
2022/10/07 09:06:38;;;;;;;14.63;3.40;;;;;;;;;;5034878;28;20030;-77
2022/10/07 09:09:16;;;;;;;16.75;3.40;;;;;;;;;;5018575;28;20530;-78
2022/10/07 09:11:44;;;;;;;21.20;3.45;;;;;;;;;;5034779;28;20107;-78
2022/10/07 09:14:12;;;;;;;10.07;2.90;;;;;;;;;;5034368;28;20021;-78
2022/10/07 09:16:42;;;;;;;14.65;3.30;;;;;;;;;;5033998;28;20017;-78
2022/10/07 09:19:13;;;;;;;10.32;3.22;;;;;;;;;;5034142;28;20026;-77
2022/10/07 09:21:43;;;;;;;9.85;2.78;;;;;;;;;;5017486;28;20083;-77
2022/10/07 09:24:23;;;;;;;14.20;3.45;;;;;;;;;;5017883;28;20084;-77
2022/10/07 09:26:50;;;;;;;12.82;2.95;;;;;;;;;;5034003;28;20030;-77
2022/10/07 09:29:18;;;;;;;15.35;3.90;;;;;;;;;;5035211;28;20083;-78
2022/10/07 09:31:44;;;;;;;10.40;3.08;;;;;;;;;;5034006;28;20052;-77
2022/10/07 09:34:22;;;;;;;11.32;3.03;;;;;;;;;;5035344;28;20033;-78
2022/10/07 09:37:12;;;;;;;12.02;3.75;;;;;;;;;;5035199;28;20075;-77
2022/10/07 09:39:38;;;;;;;15.20;2.70;;;;;;;;;;5033537;28;20369;-77
2022/10/07 09:42:05;;;;;;;10.60;2.80;;;;;;;;;;5034608;28;20038;-76
2022/10/07 09:44:31;;;;;;;13.63;3.20;;;;;;;;;;5035967;28;20041;-77
2022/10/07 09:46:58;;;;;;;12.13;2.85;;;;;;;;;;5035832;28;20482;-78
2022/10/07 09:49:26;;;;;;;9.65;2.85;;;;;;;;;;5034713;28;20029;-78
2022/10/07 09:52:13;;;;;;;9.65;3.10;;;;;;;;;;5035983;28;20033;-80
2022/10/07 09:54:39;;;;;;;9.38;2.88;;;;;;;;;;5030542;28;20061;-77
2022/10/07 09:57:05;;;;;;;7.57;3.03;;;;;;;;;;5034898;28;20499;-77
2022/10/07 09:59:33;;;;;;;9.38;3.13;;;;;;;;;;5034861;28;20431;-77
2022/10/07 10:02:03;;;;;;;9.48;3.00;;;;;;;;;;5017030;28;20468;-77
2022/10/07 10:04:46;;;;;;;11.60;2.80;;;;;;;;;;5033887;28;20033;-76
2022/10/07 10:07:22;;;;;;;10.90;3.33;;;;;;;;;;5017888;28;20080;-76
2022/10/07 10:09:53;;;;;;;13.15;3.78;;;;;;;;;;5033405;28;20094;-76
2022/10/07 10:12:19;;;;;;;13.13;3.10;;;;;;;;;;5034337;28;20481;-75
2022/10/07 10:15:03;;;;;;;13.38;2.97;;;;;;;;;;5033754;28;20025;-76
2022/10/07 10:17:34;;;;;;;12.40;3.35;;;;;;;;;;5033735;28;20037;-77
2022/10/07 10:20:38;;;;;;;12.10;3.25;;;;;;;;;;5033622;28;20499;-76
2022/10/07 10:23:22;;;;;;;12.15;3.20;;;;;;;;;;4979796;28;20034;-77
2022/10/07 10:26:27;;;;;;;10.23;2.70;;;;;;;;;;4995507;28;20030;-77
2022/10/07 10:29:24;;;;;;;8.45;2.78;;;;;;;;;;5011919;28;20037;-76
2022/10/07 10:32:08;;;;;;;15.63;2.42;;;;;;;;;;4979452;28;20032;-77
2022/10/07 10:35:00;;;;;;;12.02;3.08;;;;;;;;;;5011713;28;20072;-78
2022/10/07 10:37:40;;;;;;;10.10;2.70;;;;;;;;;;4995600;28;20125;-78
2022/10/07 10:40:30;;;;;;;9.82;3.20;;;;;;;;;;4995489;28;20032;-78
2022/10/07 10:43:15;;;;;;;12.18;3.05;;;;;;;;;;4998507;28;20022;-78
2022/10/07 10:45:52;;;;;;;12.15;2.67;;;;;;;;;;4998739;28;20489;-78
2022/10/07 10:48:17;;;;;;;12.68;2.75;;;;;;;;;;5013690;28;20037;-78
2022/10/07 10:50:56;;;;;;;16.38;2.35;;;;;;;;;;5012018;28;20489;-78
2022/10/07 10:53:56;;;;;;;9.32;2.85;;;;;;;;;;4996717;28;20033;-78
2022/10/07 10:56:40;;;;;;;7.78;2.20;;;;;;;;;;4981120;28;20033;-79
2022/10/07 10:59:17;;;;;;;7.03;2.50;;;;;;;;;;5015687;28;20116;-78
2022/10/07 11:01:45;;;;;;;15.02;2.65;;;;;;;;;;5033577;28;20085;-78
2022/10/07 11:04:35;;;;;;;12.02;2.70;;;;;;;;;;5016287;28;20036;-79
2022/10/07 11:07:11;;;;;;;7.97;2.85;;;;;;;;;;5033542;28;20109;-79
2022/10/07 11:09:42;;;;;;;8.95;2.40;;;;;;;;;;5032152;28;20021;-79
2022/10/07 11:12:30;;;;;;;10.73;2.72;;;;;;;;;;5032831;28;20033;-79
2022/10/07 11:15:06;;;;;;;11.45;2.67;;;;;;;;;;5032404;28;20108;-79
2022/10/07 11:17:36;;;;;;;10.05;2.65;;;;;;;;;;5032286;28;20104;-79
2022/10/07 11:20:12;;;;;;;12.43;2.20;;;;;;;;;;5031891;28;20507;-79
2022/10/07 11:22:43;;;;;;;9.27;2.40;;;;;;;;;;5032665;28;20472;-79
2022/10/07 11:25:33;;;;;;;12.75;2.80;;;;;;;;;;5015926;28;20047;-78
2022/10/07 11:28:11;;;;;;;7.45;2.20;;;;;;;;;;5032465;28;20036;-78
2022/10/07 11:30:50;;;;;;;7.97;2.20;;;;;;;;;;5033193;28;20025;-78
2022/10/07 11:33:22;;;;;;;7.65;2.00;;;;;;;;;;5018634;28;20025;-78
2022/10/07 11:35:51;;;;;;;6.35;2.33;;;;;;;;;;5036225;28;20036;-77
2022/10/07 11:38:19;;;;;;;13.43;2.30;;;;;;;;;;5037408;28;20029;-79
2022/10/07 11:40:49;;;;;;;10.73;2.45;;;;;;;;;;5020433;28;20029;-78
2022/10/07 11:43:26;;;;;;;7.88;2.47;;;;;;;;;;5040131;28;20025;-78
2022/10/07 11:45:57;;;;;;;17.65;2.20;;;;;;;;;;5037869;28;20041;-78
2022/10/07 11:48:43;;;;;;;8.85;2.13;;;;;;;;;;5038382;28;20029;-79
2022/10/07 11:51:19;;;;;;;7.70;2.25;;;;;;;;;;5025180;28;20029;-78
2022/10/07 11:53:44;;;;;;;11.38;2.38;;;;;;;;;;5043707;28;20073;-78
2022/10/07 11:56:25;;;;;;;10.90;2.30;;;;;;;;;;5023226;28;20041;-78
2022/10/07 11:58:59;;;;;;;8.80;2.50;;;;;;;;;;5018454;28;20028;-77
2022/10/07 12:01:25;;;;;;;14.15;2.38;;;;;;;;;;5034936;28;20392;-79
2022/10/07 12:04:14;;;;;;;10.68;2.40;;;;;;;;;;5035702;28;20025;-78
2022/10/07 12:07:34;;;;;;;11.88;2.40;;;;;;;;;;5017816;28;20025;-78
2022/10/07 12:10:08;;;;;;;10.55;2.30;;;;;;;;;;5026093;28;20050;-79
2022/10/07 12:12:51;;;;;;;16.20;2.65;;;;;;;;;;5035213;28;20086;-78
2022/10/07 12:15:41;;;;;;;12.95;2.42;;;;;;;;;;5034765;28;20028;-78
2022/10/07 12:18:06;;;;;;;8.25;2.20;;;;;;;;;;5020376;28;20022;-78
2022/10/07 12:20:36;;;;;;;8.05;2.20;;;;;;;;;;5037863;28;20029;-79
2022/10/07 12:23:17;;;;;;;7.13;2.10;;;;;;;;;;5037813;28;20508;-78
2022/10/07 12:26:03;;;;;;;8.68;2.65;;;;;;;;;;5034497;28;20025;-78
2022/10/07 12:28:38;;;;;;;9.60;2.22;;;;;;;;;;5034914;28;20030;-77
2022/10/07 12:31:04;;;;;;;8.70;1.95;;;;;;;;;;5034183;28;20079;-78
2022/10/07 12:33:29;;;;;;;8.45;2.47;;;;;;;;;;5036310;28;20104;-78
2022/10/07 12:35:55;;;;;;;11.32;1.98;;;;;;;;;;5034321;28;20092;-78
2022/10/07 12:38:30;;;;;;;11.23;2.10;;;;;;;;;;5033717;28;20049;-78
2022/10/07 12:41:02;;;;;;;10.93;2.55;;;;;;;;;;5016590;28;20033;-78
2022/10/07 12:43:27;;;;;;;8.23;2.33;;;;;;;;;;5035176;28;20483;-79
2022/10/07 12:45:53;;;;;;;9.10;1.98;;;;;;;;;;5035250;28;20115;-78
2022/10/07 12:48:20;;;;;;;8.60;2.05;;;;;;;;;;5034980;28;20025;-78
2022/10/07 12:50:48;;;;;;;13.23;2.20;;;;;;;;;;5036571;28;20083;-78
2022/10/07 12:53:14;;;;;;;4.90;1.90;;;;;;;;;;5018630;28;20040;-78
2022/10/07 12:55:45;;;;;;;7.57;1.98;;;;;;;;;;5034148;28;20034;-77
2022/10/07 13:01:42;;;;;;;5.90;1.80;;;;;;;;;;5035770;28;20083;-79
2022/10/07 13:04:19;;;;;;;9.55;2.17;;;;;;;;;;5034529;28;20472;-79
2022/10/07 13:07:03;;;;;;;7.82;2.03;;;;;;;;;;5036583;28;20113;-79
2022/10/07 13:09:41;;;;;;;8.85;1.80;;;;;;;;;;5035668;28;20028;-78
2022/10/07 13:12:26;;;;;;;5.50;1.60;;;;;;;;;;5037288;28;20389;-79
2022/10/07 13:15:13;;;;;;;7.22;1.65;;;;;;;;;;5036533;28;20040;-79
2022/10/07 13:18:05;;;;;;;5.55;1.95;;;;;;;;;;5033666;28;20039;-79
2022/10/07 13:20:55;;;;;;;4.32;1.50;;;;;;;;;;5034578;28;20025;-79
2022/10/07 13:23:22;;;;;;;4.45;1.85;;;;;;;;;;5020026;28;20032;-79
2022/10/07 13:25:52;;;;;;;5.90;1.60;;;;;;;;;;5037302;28;20028;-79
2022/10/07 13:28:21;;;;;;;5.43;1.58;;;;;;;;;;5035810;28;20369;-78
2022/10/07 13:30:48;;;;;;;7.60;2.30;;;;;;;;;;5035582;28;20040;-79
2022/10/07 13:33:29;;;;;;;8.48;1.90;;;;;;;;;;5034912;28;20041;-79
2022/10/07 13:36:33;;;;;;;8.00;1.42;;;;;;;;;;5035182;28;20089;-79
2022/10/07 13:39:29;;;;;;;8.98;2.03;;;;;;;;;;5035451;28;20052;-79
2022/10/07 13:41:57;;;;;;;6.65;1.90;;;;;;;;;;5034080;28;20025;-79
2022/10/07 13:44:25;;;;;;;8.68;2.00;;;;;;;;;;5033333;28;20053;-78
2022/10/07 13:47:00;;;;;;;6.72;1.77;;;;;;;;;;5034208;28;20448;-79
2022/10/07 13:49:29;;;;;;;7.80;1.83;;;;;;;;;;5035105;28;20432;-78
2022/10/07 13:51:58;;;;;;;6.05;1.88;;;;;;;;;;5017031;28;20108;-79
2022/10/07 13:54:26;;;;;;;7.90;2.22;;;;;;;;;;5034304;28;20056;-79
2022/10/07 13:56:52;;;;;;;6.60;2.08;;;;;;;;;;5034026;28;20043;-79
2022/10/07 13:59:19;;;;;;;5.47;1.60;;;;;;;;;;5033056;28;20547;-79
2022/10/07 14:01:47;;;;;;;8.10;2.15;;;;;;;;;;5017230;28;20033;-79
2022/10/07 14:04:46;;;;;;;6.25;1.80;;;;;;;;;;5033935;28;20022;-80
2022/10/07 14:07:11;;;;;;;6.43;1.77;;;;;;;;;;5034116;28;20041;-79
2022/10/07 14:09:48;;;;;;;5.78;2.00;;;;;;;;;;5035211;28;20503;-79
2022/10/07 14:12:28;;;;;;;7.75;2.17;;;;;;;;;;5036215;28;20120;-79
2022/10/07 14:15:02;;;;;;;4.68;1.77;;;;;;;;;;5032590;28;20108;-81
2022/10/07 14:17:37;;;;;;;6.63;1.95;;;;;;;;;;5032390;28;20057;-80
2022/10/07 14:20:24;;;;;;;8.65;1.90;;;;;;;;;;5033102;28;20124;-83
2022/10/07 14:23:18;;;;;;;15.10;2.30;;;;;;;;;;5029530;28;20045;-80
2022/10/07 14:25:46;;;;;;;13.95;2.42;;;;;;;;;;5026588;28;20038;-80
2022/10/07 14:28:19;;;;;;;8.52;2.35;;;;;;;;;;5030497;28;20516;-78
2022/10/07 14:36:34;;;;;;;8.82;2.40;;;;;;;;;;5027115;28;20087;-80
2022/10/07 14:39:20;;;;;;;13.65;2.40;;;;;;;;;;5009043;28;20029;-80
2022/10/07 14:41:46;;;;;;;7.97;1.98;;;;;;;;;;5008659;28;20135;-79
2022/10/07 14:44:12;;;;;;;9.35;2.35;;;;;;;;;;5006249;28;20113;-79
2022/10/07 14:46:38;;;;;;;5.82;2.03;;;;;;;;;;5026272;28;20117;-79
2022/10/07 14:49:05;;;;;;;6.82;1.90;;;;;;;;;;5024813;28;20426;-79
2022/10/07 14:51:31;;;;;;;5.07;1.90;;;;;;;;;;5026018;28;20029;-79
2022/10/07 14:54:03;;;;;;;7.30;2.33;;;;;;;;;;5029000;28;20040;-79
2022/10/07 14:56:31;;;;;;;6.38;1.80;;;;;;;;;;5017959;28;20014;-79
2022/10/07 14:58:56;;;;;;;7.28;1.80;;;;;;;;;;5017937;28;20107;-79
2022/10/07 15:01:28;;;;;;;5.38;1.65;;;;;;;;;;5035529;28;20057;-79
2022/10/07 15:03:56;;;;;;;8.77;2.05;;;;;;;;;;5018451;28;20034;-80
2022/10/07 15:06:21;;;;;;;9.40;1.88;;;;;;;;;;5038194;28;20516;-80
2022/10/07 15:08:47;;;;;;;7.95;2.28;;;;;;;;;;5021267;28;20111;-79
2022/10/07 15:11:18;;;;;;;7.57;2.35;;;;;;;;;;5021324;28;20072;-80
2022/10/07 15:13:48;;;;;;;6.97;1.67;;;;;;;;;;5037411;28;20496;-80
2022/10/07 15:16:19;;;;;;;6.25;1.83;;;;;;;;;;5036454;28;20532;-80